createdAt,value
2019-05-11T00:03:29.665Z,3.20
2019-05-11T00:05:58.765Z,2.80
2019-05-11T00:08:26.725Z,2.80
2019-05-11T00:10:57.831Z,3.10
2019-05-11T00:18:26.651Z,3.70
2019-05-11T00:20:57.152Z,2.90
2019-05-11T00:23:27.417Z,3.40
2019-05-11T00:25:56.764Z,3.10
2019-05-11T00:28:26.614Z,3.27
2019-05-11T00:35:54.724Z,3.10
2019-05-11T00:38:24.086Z,3.30
2019-05-11T00:40:54.874Z,3.70
2019-05-11T00:43:25.710Z,3.10
2019-05-11T00:45:55.929Z,3.10
2019-05-11T00:53:26.285Z,3.00
2019-05-11T00:55:54.824Z,3.30
2019-05-11T00:58:24.229Z,3.10
2019-05-11T01:00:55.035Z,3.00
2019-05-11T01:03:24.302Z,3.10
2019-05-11T01:05:53.950Z,2.90
2019-05-11T01:08:22.836Z,2.70
2019-05-11T01:10:52.059Z,3.20
2019-05-11T01:13:22.840Z,2.70
2019-05-11T01:15:53.338Z,2.80
2019-05-11T01:18:22.489Z,2.70
2019-05-11T01:25:48.896Z,2.70
2019-05-11T01:28:18.367Z,3.00
2019-05-11T01:30:47.648Z,2.95
2019-05-11T01:35:46.793Z,2.93
2019-05-11T01:40:58.150Z,2.85
2019-05-11T01:43:16.032Z,3.10
2019-05-11T01:45:46.857Z,2.75
2019-05-11T01:53:34.009Z,2.80
2019-05-11T02:01:00.444Z,2.80
2019-05-11T02:03:29.663Z,2.75
2019-05-11T02:05:59.717Z,3.00
2019-05-11T02:10:29.782Z,2.90
2019-05-11T02:12:59.307Z,2.40
2019-05-11T02:15:29.689Z,2.70
2019-05-11T02:17:59.283Z,2.60
2019-05-11T02:20:29.869Z,3.00
2019-05-11T02:23:00.192Z,2.50
2019-05-11T02:25:31.305Z,2.70
2019-05-11T02:30:28.507Z,2.70
2019-05-11T02:32:57.944Z,2.50
2019-05-11T02:35:28.748Z,2.40
2019-05-11T02:37:59.963Z,2.40
2019-05-11T02:40:30.839Z,2.55
2019-05-11T02:48:18.806Z,2.20
2019-05-11T02:50:49.049Z,2.20
2019-05-11T02:53:18.749Z,2.20
2019-05-11T02:55:47.283Z,2.50
2019-05-11T02:58:15.859Z,2.35
2019-05-11T03:00:45.480Z,2.45
2019-05-11T03:03:14.575Z,2.40
2019-05-11T03:05:43.716Z,2.35
2019-05-11T03:08:13.809Z,2.20
2019-05-11T03:13:55.521Z,2.05
2019-05-11T03:16:25.708Z,2.45
2019-05-11T03:18:55.004Z,2.30
2019-05-11T03:26:24.847Z,1.95
2019-05-11T03:31:22.911Z,2.15
2019-05-11T03:33:51.944Z,2.10
2019-05-11T03:36:21.527Z,1.95
2019-05-11T03:38:51.839Z,1.90
2019-05-11T03:41:20.940Z,2.05
2019-05-11T03:43:49.544Z,2.00
2019-05-11T03:46:18.731Z,1.95
2019-05-11T03:48:48.609Z,2.20
2019-05-11T03:51:18.435Z,1.60
2019-05-11T03:53:47.474Z,1.90
2019-05-11T03:56:17.576Z,1.85
2019-05-11T03:58:47.002Z,2.10
2019-05-11T04:01:17.907Z,2.00
2019-05-11T04:03:46.024Z,1.90
2019-05-11T04:10:49.828Z,1.70
2019-05-11T04:13:19.802Z,1.80
2019-05-11T04:15:49.535Z,2.20
2019-05-11T04:18:19.374Z,1.80
2019-05-11T04:20:48.893Z,1.70
2019-05-11T04:23:18.720Z,2.00
2019-05-11T04:25:47.865Z,1.70
2019-05-11T04:28:16.458Z,1.70
2019-05-11T04:31:52.620Z,1.60
2019-05-11T04:34:21.610Z,1.70
2019-05-11T04:36:49.680Z,1.77
2019-05-11T04:43:45.511Z,1.70
2019-05-11T04:46:15.805Z,1.80
2019-05-11T04:48:44.709Z,1.80
2019-05-11T04:51:13.824Z,2.20
2019-05-11T04:53:42.453Z,1.60
2019-05-11T04:58:37.882Z,1.50
2019-05-11T05:01:06.095Z,1.90
2019-05-11T05:03:40.684Z,1.47
2019-05-11T05:06:22.262Z,1.80
2019-05-11T05:08:37.975Z,1.60
2019-05-11T05:11:08.170Z,1.70
2019-05-11T05:13:39.028Z,1.40
2019-05-11T05:19:15.462Z,1.50
2019-05-11T05:21:46.500Z,1.90
2019-05-11T05:24:15.559Z,1.65
2019-05-11T05:26:43.609Z,1.40
2019-05-11T05:29:11.674Z,1.90
2019-05-11T05:31:39.892Z,1.60
2019-05-11T05:34:08.098Z,1.50
2019-05-11T05:37:40.509Z,1.70
2019-05-11T05:40:09.265Z,1.60
2019-05-11T05:42:38.795Z,1.50
2019-05-11T05:47:37.193Z,1.50
2019-05-11T05:52:36.606Z,1.50
2019-05-11T06:00:04.797Z,1.40
2019-05-11T06:02:34.569Z,1.50
2019-05-11T06:05:03.008Z,1.55
2019-05-11T06:07:31.904Z,1.80
2019-05-11T06:11:35.980Z,1.40
2019-05-11T06:19:08.611Z,1.45
2019-05-11T06:24:09.035Z,1.45
2019-05-11T06:26:38.568Z,1.60
2019-05-11T06:29:06.756Z,1.60
2019-05-11T06:31:35.751Z,1.20
2019-05-11T06:34:04.768Z,1.70
2019-05-11T06:36:34.279Z,1.60
2019-05-11T06:39:08.214Z,1.45
2019-05-11T06:41:37.911Z,1.30
2019-05-11T06:44:08.339Z,1.40
2019-05-11T06:46:38.581Z,1.60
2019-05-11T06:49:08.712Z,1.40
2019-05-11T06:51:40.590Z,1.50
2019-05-11T06:57:19.337Z,1.30
2019-05-11T07:00:04.567Z,1.40
2019-05-11T07:02:33.615Z,1.30
2019-05-11T07:05:04.592Z,1.20
2019-05-11T07:07:47.083Z,1.30
2019-05-11T07:10:05.971Z,1.50
2019-05-11T07:17:50.861Z,1.60
2019-05-11T07:25:20.530Z,1.80
2019-05-11T07:27:51.621Z,1.60
2019-05-11T07:32:48.685Z,1.50
2019-05-11T07:37:48.024Z,1.80
2019-05-11T07:42:48.513Z,1.60
2019-05-11T07:45:18.126Z,1.40
2019-05-11T07:47:48.594Z,2.30
2019-05-11T07:50:18.099Z,1.60
2019-05-11T07:52:48.633Z,1.40
2019-05-11T07:55:19.065Z,1.90
2019-05-11T07:57:50.954Z,1.75
2019-05-11T08:00:18.828Z,1.55
2019-05-11T08:02:48.105Z,1.65
2019-05-11T08:05:18.119Z,1.70
2019-05-11T08:10:18.780Z,1.70
2019-05-11T08:12:48.505Z,1.70
2019-05-11T08:15:18.560Z,1.50
2019-05-11T08:22:49.033Z,1.55
2019-05-11T08:25:19.942Z,1.10
2019-05-11T08:27:50.888Z,1.20
2019-05-11T08:32:09.623Z,2.10
2019-05-11T08:34:39.796Z,1.80
2019-05-11T08:37:08.903Z,1.75
2019-05-11T08:39:39.602Z,1.50
2019-05-11T08:45:16.043Z,1.50
2019-05-11T08:50:02.672Z,2.40
2019-05-11T08:52:32.810Z,1.70
2019-05-11T08:55:29.125Z,1.35
2019-05-11T08:57:59.020Z,1.30
2019-05-11T09:00:28.643Z,1.40
2019-05-11T09:02:58.476Z,1.50
2019-05-11T09:05:28.107Z,1.35
2019-05-11T09:07:58.692Z,1.60
2019-05-11T09:10:28.396Z,2.15
2019-05-11T09:12:59.120Z,1.20
2019-05-11T09:15:36.475Z,1.60
2019-05-11T09:22:32.061Z,1.70
2019-05-11T09:25:02.825Z,1.20
2019-05-11T09:27:32.846Z,1.20
2019-05-11T09:30:01.731Z,1.40
2019-05-11T09:34:59.604Z,1.10
2019-05-11T09:37:29.640Z,1.25
2019-05-11T09:40:00.087Z,1.30
2019-05-11T09:49:47.617Z,1.10
2019-05-11T09:52:12.622Z,1.20
2019-05-11T09:54:42.156Z,1.30
2019-05-11T10:02:08.739Z,1.20
2019-05-11T10:04:38.153Z,1.40
2019-05-11T10:09:38.858Z,1.40
2019-05-11T10:16:06.760Z,1.40
2019-05-11T10:18:30.332Z,1.15
2019-05-11T10:21:00.662Z,1.05
2019-05-11T10:23:30.776Z,1.60
2019-05-11T10:26:38.983Z,2.30
2019-05-11T10:29:38.416Z,2.20
2019-05-11T10:34:38.619Z,2.70
2019-05-11T10:39:38.973Z,2.05
2019-05-11T10:42:08.733Z,2.10
2019-05-11T10:44:38.537Z,1.80
2019-05-11T10:49:38.076Z,1.80
2019-05-11T10:53:54.027Z,2.10
2019-05-11T10:56:24.066Z,2.00
2019-05-11T10:58:54.244Z,1.60
2019-05-11T11:01:24.959Z,2.13
2019-05-11T11:03:54.056Z,2.15
2019-05-11T11:06:24.062Z,2.05
2019-05-11T11:08:54.715Z,2.30
2019-05-11T11:13:58.299Z,2.00
2019-05-11T11:16:36.990Z,1.90
2019-05-11T11:18:58.832Z,2.10
2019-05-11T11:21:28.798Z,2.10
2019-05-11T11:23:59.578Z,2.40
2019-05-11T11:26:28.683Z,1.60
2019-05-11T11:29:33.508Z,1.80
2019-05-11T11:32:02.502Z,2.65
2019-05-11T11:34:30.819Z,2.10
2019-05-11T11:36:59.882Z,2.10
2019-05-11T11:41:58.802Z,2.10
2019-05-11T11:44:28.776Z,2.00
2019-05-11T11:46:59.205Z,2.60
2019-05-11T11:49:29.911Z,2.10
2019-05-11T11:54:28.808Z,1.95
2019-05-11T11:56:59.134Z,1.70
2019-05-11T11:59:29.718Z,2.50
2019-05-11T12:02:00.678Z,1.90
2019-05-11T12:04:29.517Z,2.05
2019-05-11T12:06:58.887Z,2.50
2019-05-11T12:11:59.736Z,2.10
2019-05-11T12:14:28.594Z,2.00
2019-05-11T12:17:06.979Z,1.70
2019-05-11T12:19:31.257Z,2.00
2019-05-11T12:22:01.717Z,1.80
2019-05-11T12:24:30.889Z,1.60
2019-05-11T12:27:02.778Z,1.70
2019-05-11T12:29:32.839Z,2.00
2019-05-11T12:32:04.869Z,2.10
2019-05-11T12:37:01.984Z,1.25
2019-05-11T12:39:35.847Z,1.20
2019-05-11T12:44:54.541Z,1.50
2019-05-11T12:47:25.193Z,1.20
2019-05-11T12:49:52.460Z,1.60
2019-05-11T12:52:21.434Z,1.00
2019-05-11T12:54:50.648Z,1.10
2019-05-11T12:57:18.763Z,1.20
2019-05-11T12:59:48.794Z,1.20
2019-05-11T13:02:18.488Z,1.65
2019-05-11T13:07:19.513Z,1.40
2019-05-11T13:09:48.505Z,1.40
2019-05-11T13:12:18.670Z,1.02
2019-05-11T13:14:48.894Z,1.30
2019-05-11T13:17:18.650Z,1.15
2019-05-11T13:19:47.985Z,1.50
2019-05-11T13:22:19.261Z,1.80
2019-05-11T13:24:48.126Z,1.30
2019-05-11T13:27:18.325Z,1.20
2019-05-11T13:29:48.746Z,1.00
2019-05-11T13:32:18.539Z,1.20
2019-05-11T13:34:48.034Z,2.35
2019-05-11T13:37:18.584Z,1.30
2019-05-11T13:39:48.780Z,1.90
2019-05-11T13:42:19.535Z,1.30
2019-05-11T13:44:48.798Z,1.30
2019-05-11T13:48:05.019Z,1.60
2019-05-11T13:50:34.094Z,1.20
2019-05-11T13:53:03.487Z,1.20
2019-05-11T13:55:32.113Z,1.57
2019-05-11T13:59:38.490Z,1.00
2019-05-11T14:02:10.648Z,1.45
2019-05-11T14:04:38.533Z,1.10
2019-05-11T14:09:37.981Z,1.10
2019-05-11T14:12:07.719Z,1.70
2019-05-11T14:14:37.722Z,1.40
2019-05-11T14:17:08.247Z,1.70
2019-05-11T14:19:38.709Z,1.60
2019-05-11T14:22:09.199Z,1.70
2019-05-11T14:24:37.630Z,1.90
2019-05-11T14:32:06.275Z,1.53
2019-05-11T14:34:38.880Z,1.60
2019-05-11T14:37:08.801Z,2.05
2019-05-11T14:39:38.324Z,1.63
2019-05-11T14:42:07.822Z,2.10
2019-05-11T14:44:37.668Z,1.50
2019-05-11T14:47:08.374Z,1.80
2019-05-11T14:49:38.026Z,1.40
2019-05-11T14:52:08.424Z,1.50
2019-05-11T14:54:38.709Z,1.45
2019-05-11T14:57:08.099Z,1.20
2019-05-11T14:59:37.773Z,1.50
2019-05-11T15:03:51.105Z,1.45
2019-05-11T15:06:19.343Z,1.35
2019-05-11T15:08:48.899Z,1.40
2019-05-11T15:11:19.289Z,1.35
2019-05-11T15:13:49.030Z,2.05
2019-05-11T15:21:08.262Z,2.00
2019-05-11T15:23:37.853Z,2.20
2019-05-11T15:26:07.843Z,1.50
2019-05-11T15:28:37.824Z,1.43
2019-05-11T15:31:05.305Z,2.07
2019-05-11T15:36:09.434Z,1.85
2019-05-11T15:38:37.881Z,1.60
2019-05-11T15:41:08.337Z,1.70
2019-05-11T15:43:38.662Z,1.50
2019-05-11T15:46:06.308Z,1.93
2019-05-11T15:48:35.052Z,2.15
2019-05-11T15:51:03.426Z,1.90
2019-05-11T15:53:31.503Z,1.70
2019-05-11T15:55:59.909Z,2.20
2019-05-11T15:58:29.244Z,2.20
2019-05-11T16:00:58.784Z,2.90
2019-05-11T16:03:26.751Z,2.25
2019-05-11T16:05:58.240Z,2.65
2019-05-11T16:10:57.830Z,2.40
2019-05-11T16:13:28.484Z,1.90
2019-05-11T16:18:29.187Z,2.00
2019-05-11T16:20:58.305Z,2.40
2019-05-11T16:23:28.400Z,1.70
2019-05-11T16:25:58.097Z,2.10
2019-05-11T16:28:30.850Z,2.10
2019-05-11T16:30:59.958Z,2.00
2019-05-11T16:33:29.370Z,1.80
2019-05-11T16:36:00.848Z,2.10
2019-05-11T16:38:31.141Z,1.70
2019-05-11T16:41:00.140Z,2.25
2019-05-11T16:43:29.406Z,2.90
2019-05-11T16:46:00.400Z,2.80
2019-05-11T16:48:29.942Z,2.35
2019-05-11T16:51:03.084Z,2.00
2019-05-11T16:53:35.329Z,1.70
2019-05-11T16:56:05.391Z,1.90
2019-05-11T16:58:33.868Z,1.80
2019-05-11T17:03:04.803Z,1.80
2019-05-11T17:05:33.952Z,1.90
2019-05-11T17:08:02.226Z,2.30
2019-05-11T17:13:01.560Z,2.10
2019-05-11T17:15:30.634Z,1.65
2019-05-11T17:17:59.124Z,2.15
2019-05-11T17:20:27.704Z,1.90
2019-05-11T17:22:56.036Z,1.90
2019-05-11T17:25:24.939Z,1.90
2019-05-11T17:27:53.982Z,2.00
2019-05-11T17:32:51.190Z,2.20
2019-05-11T17:35:20.766Z,2.40
2019-05-11T17:37:49.260Z,1.90
2019-05-11T17:40:20.641Z,1.80
2019-05-11T17:42:48.397Z,1.80
2019-05-11T17:45:18.912Z,2.15
2019-05-11T17:47:47.729Z,2.10
2019-05-11T17:50:18.852Z,2.10
2019-05-11T17:53:34.469Z,2.30
2019-05-11T17:56:03.074Z,1.95
2019-05-11T17:59:02.799Z,2.40
2019-05-11T18:01:31.219Z,2.10
2019-05-11T18:04:00.506Z,2.15
2019-05-11T18:06:28.767Z,1.95
2019-05-11T18:08:58.444Z,2.35
2019-05-11T18:11:26.963Z,2.20
2019-05-11T18:16:24.472Z,2.40
2019-05-11T18:20:06.623Z,2.00
2019-05-11T18:22:28.473Z,2.10
2019-05-11T18:24:58.172Z,1.80
2019-05-11T18:27:27.854Z,2.05
2019-05-11T18:29:58.075Z,1.85
2019-05-11T18:32:28.389Z,1.95
2019-05-11T18:34:58.928Z,1.95
2019-05-11T18:37:28.186Z,2.00
2019-05-11T18:39:58.523Z,1.85
2019-05-11T18:42:29.013Z,2.05
2019-05-11T18:47:29.803Z,1.70
2019-05-11T18:49:59.104Z,1.90
2019-05-11T18:52:27.882Z,1.80
2019-05-11T18:54:57.847Z,2.10
2019-05-11T18:57:27.802Z,2.40
2019-05-11T19:02:28.696Z,1.80
2019-05-11T19:04:58.135Z,1.85
2019-05-11T19:07:28.269Z,1.80
2019-05-11T19:09:57.818Z,1.80
2019-05-11T19:14:58.712Z,1.65
2019-05-11T19:17:29.061Z,1.80
2019-05-11T19:19:58.638Z,2.10
2019-05-11T19:22:28.877Z,1.75
2019-05-11T19:26:36.830Z,1.80
2019-05-11T19:29:04.781Z,2.13
2019-05-11T19:31:32.634Z,1.50
2019-05-11T19:34:00.614Z,1.80
2019-05-11T19:36:28.766Z,1.80
2019-05-11T19:38:58.436Z,1.65
2019-05-11T19:41:27.808Z,1.90
2019-05-11T19:43:57.707Z,1.70
2019-05-11T19:46:27.984Z,1.80
2019-05-11T19:48:57.960Z,2.20
2019-05-11T19:51:28.922Z,1.50
2019-05-11T19:53:58.163Z,1.50
2019-05-11T19:56:28.769Z,2.80
2019-05-11T20:02:12.942Z,2.20
2019-05-11T20:04:41.149Z,2.20
2019-05-11T20:07:10.049Z,2.20
2019-05-11T20:09:38.783Z,2.10
2019-05-11T20:12:07.891Z,2.10
2019-05-11T20:14:37.807Z,2.20
2019-05-11T20:17:08.972Z,2.70
2019-05-11T20:19:38.478Z,2.30
2019-05-11T20:22:07.400Z,1.80
2019-05-11T20:29:33.202Z,1.60
2019-05-11T20:32:02.237Z,2.40
2019-05-11T20:34:29.920Z,2.00
2019-05-11T20:39:28.720Z,1.90
2019-05-11T20:41:58.156Z,2.10
2019-05-11T20:44:28.674Z,3.00
2019-05-11T20:46:59.254Z,2.67
2019-05-11T20:49:28.253Z,1.80
2019-05-11T20:51:58.030Z,2.00
2019-05-11T20:54:28.178Z,2.10
2019-05-11T20:56:58.431Z,2.15
2019-05-11T20:59:29.191Z,2.00
2019-05-11T21:01:58.611Z,2.20
2019-05-11T21:04:28.207Z,1.80
2019-05-11T21:06:57.963Z,2.30
2019-05-11T21:09:28.764Z,2.55
2019-05-11T21:11:58.802Z,2.70
2019-05-11T21:14:28.862Z,2.50
2019-05-11T21:16:59.036Z,2.20
2019-05-11T21:19:28.242Z,2.20
2019-05-11T21:21:58.948Z,2.00
2019-05-11T21:24:28.215Z,2.05
2019-05-11T21:29:28.194Z,2.30
2019-05-11T21:31:58.904Z,2.30
2019-05-11T21:34:27.945Z,1.60
2019-05-11T21:36:56.184Z,1.80
2019-05-11T21:39:24.877Z,2.20
2019-05-11T21:46:35.401Z,2.05
2019-05-11T21:51:31.530Z,1.60
2019-05-11T21:56:28.803Z,1.97
2019-05-11T21:58:58.405Z,1.97
2019-05-11T22:01:28.088Z,1.83
2019-05-11T22:03:56.262Z,1.70
2019-05-11T22:06:24.840Z,1.83
2019-05-11T22:08:53.069Z,2.03
2019-05-11T22:11:22.108Z,1.70
2019-05-11T22:13:51.354Z,2.10
2019-05-11T22:16:19.543Z,1.60
2019-05-11T22:18:48.961Z,1.87
2019-05-11T22:21:18.729Z,1.80
2019-05-11T22:23:47.435Z,2.00
2019-05-11T22:26:17.978Z,1.60
2019-05-11T22:28:48.193Z,1.50
2019-05-11T22:31:18.343Z,1.60
2019-05-11T22:33:48.053Z,1.80
2019-05-11T22:36:16.047Z,1.80
2019-05-11T22:38:43.695Z,1.70
2019-05-11T22:41:13.167Z,1.50
2019-05-11T22:46:09.182Z,1.60
2019-05-11T22:48:38.112Z,1.50
2019-05-11T22:51:08.016Z,1.60
2019-05-11T22:53:44.684Z,1.80
2019-05-11T22:56:06.481Z,1.90
2019-05-11T23:01:02.625Z,2.20
2019-05-11T23:03:30.755Z,1.95
2019-05-11T23:05:59.650Z,1.90
2019-05-11T23:08:27.349Z,2.00
2019-05-11T23:10:56.641Z,1.60
2019-05-11T23:13:27.862Z,2.10
2019-05-11T23:18:31.175Z,1.80
2019-05-11T23:23:28.829Z,1.70
2019-05-11T23:25:57.956Z,1.95
2019-05-11T23:28:28.964Z,1.70
2019-05-11T23:30:58.292Z,1.70
2019-05-11T23:35:38.267Z,1.50
2019-05-11T23:38:05.146Z,1.80
2019-05-11T23:43:58.428Z,2.00
2019-05-11T23:46:28.480Z,1.90
2019-05-11T23:51:10.484Z,1.80
2019-05-11T23:53:39.465Z,1.62
2019-05-11T23:58:39.110Z,1.55
